sensor_id;sensor_type;location;lat;lon;timestamp;pressure;altitude;pressure_sealevel;temperature;humidity
68594;BME280;55563;52.416;13.548;2023-07-09T00:01:03;101598.78;;;19.95;100.00
68594;BME280;55563;52.416;13.548;2023-07-09T00:03:04;101586.50;;;19.94;100.00
68594;BME280;55563;52.416;13.548;2023-07-09T00:05:05;101606.47;;;19.69;100.00
68594;BME280;55563;52.416;13.548;2023-07-09T00:07:15;101599.44;;;19.73;100.00
68594;BME280;55563;52.416;13.548;2023-07-09T00:09:20;101610.44;;;19.99;100.00
68594;BME280;55563;52.416;13.548;2023-07-09T00:11:21;101607.34;;;19.92;100.00
68594;BME280;55563;52.416;13.548;2023-07-09T00:13:27;101609.72;;;19.80;100.00
68594;BME280;55563;52.416;13.548;2023-07-09T00:15:37;101602.50;;;19.34;100.00
68594;BME280;55563;52.416;13.548;2023-07-09T00:17:47;101602.38;;;19.58;100.00
68594;BME280;55563;52.416;13.548;2023-07-09T00:19:48;101602.28;;;19.49;100.00
68594;BME280;55563;52.416;13.548;2023-07-09T00:22:15;101606.03;;;19.62;100.00
68594;BME280;55563;52.416;13.548;2023-07-09T00:25:11;101601.59;;;19.25;100.00
68594;BME280;55563;52.416;13.548;2023-07-09T00:30:59;101601.38;;;19.08;100.00
68594;BME280;55563;52.416;13.548;2023-07-09T00:34:27;101596.56;;;18.91;100.00
68594;BME280;55563;52.416;13.548;2023-07-09T00:37:52;101600.56;;;18.75;100.00
68594;BME280;55563;52.416;13.548;2023-07-09T00:41:13;101601.72;;;18.69;100.00
68594;BME280;55563;52.416;13.548;2023-07-09T00:44:36;101591.41;;;18.62;100.00
68594;BME280;55563;52.416;13.548;2023-07-09T00:47:50;101597.63;;;18.53;100.00
68594;BME280;55563;52.416;13.548;2023-07-09T00:50:10;101591.22;;;18.91;100.00
68594;BME280;55563;52.416;13.548;2023-07-09T00:53:03;101588.25;;;18.60;100.00
68594;BME280;55563;52.416;13.548;2023-07-09T00:55:31;101589.91;;;18.75;100.00
68594;BME280;55563;52.416;13.548;2023-07-09T00:57:39;101585.41;;;18.70;100.00
68594;BME280;55563;52.416;13.548;2023-07-09T00:59:48;101587.25;;;19.07;100.00
68594;BME280;55563;52.416;13.548;2023-07-09T01:01:53;101582.81;;;19.03;100.00
68594;BME280;55563;52.416;13.548;2023-07-09T01:03:58;101578.03;;;19.00;100.00
68594;BME280;55563;52.416;13.548;2023-07-09T01:06:02;101573.41;;;18.73;100.00
68594;BME280;55563;52.416;13.548;2023-07-09T01:08:08;101577.34;;;18.76;100.00
68594;BME280;55563;52.416;13.548;2023-07-09T01:10:11;101571.00;;;18.53;100.00
68594;BME280;55563;52.416;13.548;2023-07-09T01:12:19;101573.56;;;18.63;100.00
68594;BME280;55563;52.416;13.548;2023-07-09T01:14:25;101570.75;;;18.54;100.00
68594;BME280;55563;52.416;13.548;2023-07-09T01:16:29;101576.13;;;18.49;100.00
68594;BME280;55563;52.416;13.548;2023-07-09T01:18:31;101577.19;;;18.48;100.00
68594;BME280;55563;52.416;13.548;2023-07-09T01:20:33;101575.84;;;18.51;100.00
68594;BME280;55563;52.416;13.548;2023-07-09T01:22:36;101578.69;;;18.59;100.00
68594;BME280;55563;52.416;13.548;2023-07-09T01:25:00;101580.06;;;18.52;100.00
68594;BME280;55563;52.416;13.548;2023-07-09T01:27:04;101575.00;;;18.55;100.00
68594;BME280;55563;52.416;13.548;2023-07-09T01:29:05;101584.13;;;18.49;100.00
68594;BME280;55563;52.416;13.548;2023-07-09T01:31:06;101585.97;;;18.49;100.00
68594;BME280;55563;52.416;13.548;2023-07-09T01:33:07;101581.16;;;18.51;100.00
68594;BME280;55563;52.416;13.548;2023-07-09T01:35:10;101585.66;;;18.74;100.00
68594;BME280;55563;52.416;13.548;2023-07-09T01:37:12;101585.97;;;18.86;100.00
68594;BME280;55563;52.416;13.548;2023-07-09T01:39:12;101581.41;;;18.73;100.00
68594;BME280;55563;52.416;13.548;2023-07-09T01:41:13;101585.78;;;18.83;100.00
68594;BME280;55563;52.416;13.548;2023-07-09T01:43:14;101582.41;;;18.77;100.00
68594;BME280;55563;52.416;13.548;2023-07-09T01:45:16;101582.19;;;18.73;100.00
68594;BME280;55563;52.416;13.548;2023-07-09T01:47:17;101589.19;;;18.69;100.00
68594;BME280;55563;52.416;13.548;2023-07-09T01:49:18;101585.28;;;18.62;100.00
68594;BME280;55563;52.416;13.548;2023-07-09T01:51:27;101582.13;;;18.60;100.00
68594;BME280;55563;52.416;13.548;2023-07-09T01:53:40;101579.53;;;18.55;100.00
68594;BME280;55563;52.416;13.548;2023-07-09T01:55:44;101579.84;;;18.48;100.00
68594;BME280;55563;52.416;13.548;2023-07-09T01:57:50;101576.03;;;18.17;100.00
68594;BME280;55563;52.416;13.548;2023-07-09T02:00:00;101576.97;;;18.07;100.00
68594;BME280;55563;52.416;13.548;2023-07-09T02:02:25;101574.06;;;18.04;100.00
68594;BME280;55563;52.416;13.548;2023-07-09T02:04:27;101570.72;;;18.17;100.00
68594;BME280;55563;52.416;13.548;2023-07-09T02:06:27;101578.19;;;18.34;100.00
68594;BME280;55563;52.416;13.548;2023-07-09T02:08:32;101571.28;;;18.33;100.00
68594;BME280;55563;52.416;13.548;2023-07-09T02:10:33;101572.44;;;18.08;100.00
68594;BME280;55563;52.416;13.548;2023-07-09T02:12:34;101581.06;;;17.95;100.00
68594;BME280;55563;52.416;13.548;2023-07-09T02:14:35;101577.75;;;18.08;100.00
68594;BME280;55563;52.416;13.548;2023-07-09T02:16:36;101580.97;;;18.05;100.00
68594;BME280;55563;52.416;13.548;2023-07-09T02:18:36;101582.56;;;18.06;100.00
68594;BME280;55563;52.416;13.548;2023-07-09T02:20:37;101574.09;;;17.99;100.00
68594;BME280;55563;52.416;13.548;2023-07-09T02:22:39;101580.50;;;18.21;100.00
68594;BME280;55563;52.416;13.548;2023-07-09T02:24:39;101582.03;;;18.04;100.00
68594;BME280;55563;52.416;13.548;2023-07-09T02:26:40;101581.25;;;18.03;100.00
68594;BME280;55563;52.416;13.548;2023-07-09T02:28:41;101579.69;;;18.02;100.00
68594;BME280;55563;52.416;13.548;2023-07-09T02:30:41;101586.34;;;18.00;100.00
68594;BME280;55563;52.416;13.548;2023-07-09T02:32:42;101583.75;;;17.95;100.00
68594;BME280;55563;52.416;13.548;2023-07-09T02:34:43;101582.72;;;17.91;100.00
68594;BME280;55563;52.416;13.548;2023-07-09T02:36:44;101581.25;;;17.79;100.00
68594;BME280;55563;52.416;13.548;2023-07-09T02:38:45;101585.44;;;18.09;100.00
68594;BME280;55563;52.416;13.548;2023-07-09T02:40:46;101584.75;;;17.99;100.00
68594;BME280;55563;52.416;13.548;2023-07-09T02:42:46;101584.59;;;17.90;100.00
68594;BME280;55563;52.416;13.548;2023-07-09T02:44:51;101590.94;;;17.70;100.00
68594;BME280;55563;52.416;13.548;2023-07-09T02:46:52;101590.75;;;17.85;100.00
68594;BME280;55563;52.416;13.548;2023-07-09T02:48:53;101595.13;;;17.76;100.00
68594;BME280;55563;52.416;13.548;2023-07-09T02:51:12;101592.88;;;17.89;100.00
68594;BME280;55563;52.416;13.548;2023-07-09T02:53:13;101592.94;;;17.83;100.00
68594;BME280;55563;52.416;13.548;2023-07-09T02:55:14;101584.84;;;17.94;100.00
68594;BME280;55563;52.416;13.548;2023-07-09T02:57:15;101582.91;;;17.75;100.00
68594;BME280;55563;52.416;13.548;2023-07-09T02:59:16;101587.50;;;17.94;100.00
68594;BME280;55563;52.416;13.548;2023-07-09T03:01:17;101586.97;;;17.92;100.00
68594;BME280;55563;52.416;13.548;2023-07-09T03:03:19;101588.50;;;17.98;100.00
68594;BME280;55563;52.416;13.548;2023-07-09T03:05:20;101590.47;;;18.11;100.00
68594;BME280;55563;52.416;13.548;2023-07-09T03:07:21;101588.25;;;17.94;100.00
68594;BME280;55563;52.416;13.548;2023-07-09T03:09:22;101587.78;;;17.92;100.00
68594;BME280;55563;52.416;13.548;2023-07-09T03:11:22;101591.78;;;17.90;100.00
68594;BME280;55563;52.416;13.548;2023-07-09T03:13:23;101597.47;;;17.83;100.00
68594;BME280;55563;52.416;13.548;2023-07-09T03:15:24;101591.34;;;17.82;100.00
68594;BME280;55563;52.416;13.548;2023-07-09T03:17:25;101593.38;;;17.91;100.00
68594;BME280;55563;52.416;13.548;2023-07-09T03:19:25;101594.63;;;17.98;100.00
68594;BME280;55563;52.416;13.548;2023-07-09T03:21:27;101593.03;;;17.97;100.00
68594;BME280;55563;52.416;13.548;2023-07-09T03:23:28;101598.28;;;18.26;100.00
68594;BME280;55563;52.416;13.548;2023-07-09T03:25:28;101599.44;;;18.39;100.00
68594;BME280;55563;52.416;13.548;2023-07-09T03:27:29;101608.44;;;18.61;100.00
68594;BME280;55563;52.416;13.548;2023-07-09T03:29:30;101601.47;;;19.03;100.00
68594;BME280;55563;52.416;13.548;2023-07-09T03:31:31;101606.22;;;18.87;100.00
68594;BME280;55563;52.416;13.548;2023-07-09T03:33:35;101611.97;;;18.76;100.00
68594;BME280;55563;52.416;13.548;2023-07-09T03:35:36;101607.25;;;17.88;100.00
68594;BME280;55563;52.416;13.548;2023-07-09T03:37:38;101615.22;;;18.54;100.00
68594;BME280;55563;52.416;13.548;2023-07-09T03:39:39;101607.38;;;18.62;100.00
68594;BME280;55563;52.416;13.548;2023-07-09T03:41:40;101606.00;;;18.46;100.00
68594;BME280;55563;52.416;13.548;2023-07-09T03:43:40;101603.50;;;18.12;100.00
68594;BME280;55563;52.416;13.548;2023-07-09T03:45:43;101604.34;;;18.08;100.00
68594;BME280;55563;52.416;13.548;2023-07-09T03:47:44;101611.88;;;18.01;100.00
68594;BME280;55563;52.416;13.548;2023-07-09T03:49:45;101606.50;;;18.06;100.00
68594;BME280;55563;52.416;13.548;2023-07-09T03:51:46;101613.59;;;18.34;100.00
68594;BME280;55563;52.416;13.548;2023-07-09T03:53:46;101613.94;;;18.27;100.00
68594;BME280;55563;52.416;13.548;2023-07-09T03:55:52;101614.25;;;20.07;100.00
68594;BME280;55563;52.416;13.548;2023-07-09T03:57:54;101611.41;;;20.17;100.00
68594;BME280;55563;52.416;13.548;2023-07-09T03:59:55;101613.25;;;20.57;100.00
68594;BME280;55563;52.416;13.548;2023-07-09T04:01:56;101620.25;;;21.64;100.00
68594;BME280;55563;52.416;13.548;2023-07-09T04:03:56;101621.28;;;22.25;98.24
68594;BME280;55563;52.416;13.548;2023-07-09T04:05:57;101620.03;;;22.48;97.38
68594;BME280;55563;52.416;13.548;2023-07-09T04:07:58;101622.50;;;22.19;100.00
68594;BME280;55563;52.416;13.548;2023-07-09T04:09:59;101619.13;;;22.70;96.16
68594;BME280;55563;52.416;13.548;2023-07-09T04:11:59;101620.09;;;22.00;100.00
68594;BME280;55563;52.416;13.548;2023-07-09T04:14:01;101621.13;;;22.56;95.48
68594;BME280;55563;52.416;13.548;2023-07-09T04:16:02;101623.72;;;22.04;98.19
68594;BME280;55563;52.416;13.548;2023-07-09T04:18:03;101622.41;;;22.93;92.80
68594;BME280;55563;52.416;13.548;2023-07-09T04:20:04;101626.81;;;23.70;87.61
68594;BME280;55563;52.416;13.548;2023-07-09T04:22:06;101628.81;;;23.26;90.59
68594;BME280;55563;52.416;13.548;2023-07-09T04:24:06;101635.50;;;23.12;92.45
68594;BME280;55563;52.416;13.548;2023-07-09T04:26:12;101633.56;;;24.43;81.41
68594;BME280;55563;52.416;13.548;2023-07-09T04:28:14;101643.91;;;24.32;80.97
68594;BME280;55563;52.416;13.548;2023-07-09T04:30:15;101636.97;;;24.31;82.01
68594;BME280;55563;52.416;13.548;2023-07-09T04:32:15;101640.28;;;24.28;78.39
68594;BME280;55563;52.416;13.548;2023-07-09T04:34:16;101628.19;;;24.64;73.81
68594;BME280;55563;52.416;13.548;2023-07-09T04:36:17;101625.94;;;25.19;71.10
68594;BME280;55563;52.416;13.548;2023-07-09T04:38:17;101634.13;;;23.61;75.43
68594;BME280;55563;52.416;13.548;2023-07-09T04:40:18;101628.69;;;24.37;70.62
68594;BME280;55563;52.416;13.548;2023-07-09T04:42:19;101630.28;;;25.45;64.93
68594;BME280;55563;52.416;13.548;2023-07-09T04:44:20;101632.00;;;25.61;65.02
68594;BME280;55563;52.416;13.548;2023-07-09T04:46:20;101624.69;;;25.62;62.20
68594;BME280;55563;52.416;13.548;2023-07-09T04:48:21;101635.28;;;26.28;60.13
68594;BME280;55563;52.416;13.548;2023-07-09T04:50:22;101635.50;;;24.75;68.30
68594;BME280;55563;52.416;13.548;2023-07-09T04:52:22;101629.88;;;26.28;61.23
68594;BME280;55563;52.416;13.548;2023-07-09T04:54:23;101627.75;;;25.60;61.62
68594;BME280;55563;52.416;13.548;2023-07-09T04:56:23;101635.00;;;26.45;60.06
68594;BME280;55563;52.416;13.548;2023-07-09T04:58:24;101634.53;;;26.55;59.85
68594;BME280;55563;52.416;13.548;2023-07-09T05:00:25;101636.47;;;27.26;56.06
68594;BME280;55563;52.416;13.548;2023-07-09T05:02:26;101634.78;;;26.78;57.32
68594;BME280;55563;52.416;13.548;2023-07-09T05:04:26;101635.09;;;26.88;56.26
68594;BME280;55563;52.416;13.548;2023-07-09T05:06:31;101637.97;;;26.68;58.86
68594;BME280;55563;52.416;13.548;2023-07-09T05:08:32;101635.19;;;26.92;57.72
68594;BME280;55563;52.416;13.548;2023-07-09T05:10:33;101634.47;;;26.03;57.94
68594;BME280;55563;52.416;13.548;2023-07-09T05:12:33;101635.94;;;26.37;60.23
68594;BME280;55563;52.416;13.548;2023-07-09T05:14:34;101634.56;;;25.46;60.71
68594;BME280;55563;52.416;13.548;2023-07-09T05:16:35;101633.94;;;25.61;61.99
68594;BME280;55563;52.416;13.548;2023-07-09T05:18:36;101634.34;;;25.51;64.97
68594;BME280;55563;52.416;13.548;2023-07-09T05:20:37;101635.72;;;26.98;58.83
68594;BME280;55563;52.416;13.548;2023-07-09T05:22:38;101634.78;;;27.06;58.85
68594;BME280;55563;52.416;13.548;2023-07-09T05:24:39;101635.59;;;26.26;58.83
68594;BME280;55563;52.416;13.548;2023-07-09T05:26:39;101636.06;;;25.92;61.75
68594;BME280;55563;52.416;13.548;2023-07-09T05:28:40;101634.03;;;27.21;59.21
68594;BME280;55563;52.416;13.548;2023-07-09T05:30:42;101630.31;;;26.18;60.05
68594;BME280;55563;52.416;13.548;2023-07-09T05:32:42;101631.72;;;26.52;60.76
68594;BME280;55563;52.416;13.548;2023-07-09T05:34:43;101636.63;;;27.61;55.23
68594;BME280;55563;52.416;13.548;2023-07-09T05:36:44;101644.03;;;28.49;51.24
68594;BME280;55563;52.416;13.548;2023-07-09T05:38:45;101635.84;;;28.46;51.28
68594;BME280;55563;52.416;13.548;2023-07-09T05:40:47;101642.00;;;25.97;57.95
68594;BME280;55563;52.416;13.548;2023-07-09T05:42:49;101638.56;;;27.48;54.12
68594;BME280;55563;52.416;13.548;2023-07-09T05:44:51;101641.28;;;28.84;49.83
68594;BME280;55563;52.416;13.548;2023-07-09T05:46:52;101643.69;;;29.09;47.72
68594;BME280;55563;52.416;13.548;2023-07-09T05:48:52;101657.03;;;28.79;49.80
68594;BME280;55563;52.416;13.548;2023-07-09T05:50:53;101642.34;;;28.99;48.84
68594;BME280;55563;52.416;13.548;2023-07-09T05:52:55;101642.94;;;26.66;52.67
68594;BME280;55563;52.416;13.548;2023-07-09T05:54:56;101640.03;;;26.86;54.92
68594;BME280;55563;52.416;13.548;2023-07-09T05:56:56;101641.41;;;27.08;56.19
68594;BME280;55563;52.416;13.548;2023-07-09T05:58:57;101642.84;;;27.96;53.21
68594;BME280;55563;52.416;13.548;2023-07-09T06:00:58;101646.09;;;28.72;50.45
68594;BME280;55563;52.416;13.548;2023-07-09T06:02:58;101643.03;;;28.19;52.51
68594;BME280;55563;52.416;13.548;2023-07-09T06:04:59;101646.56;;;28.23;54.84
68594;BME280;55563;52.416;13.548;2023-07-09T06:07:00;101642.19;;;28.34;52.56
68594;BME280;55563;52.416;13.548;2023-07-09T06:09:01;101651.38;;;28.68;50.24
68594;BME280;55563;52.416;13.548;2023-07-09T06:11:02;101633.59;;;29.28;49.93
68594;BME280;55563;52.416;13.548;2023-07-09T06:13:03;101632.28;;;28.07;52.22
68594;BME280;55563;52.416;13.548;2023-07-09T06:15:04;101639.28;;;27.45;54.15
68594;BME280;55563;52.416;13.548;2023-07-09T06:17:06;101636.84;;;29.60;50.20
68594;BME280;55563;52.416;13.548;2023-07-09T06:19:07;101639.13;;;30.07;47.07
68594;BME280;55563;52.416;13.548;2023-07-09T06:21:08;101635.06;;;29.26;49.71
68594;BME280;55563;52.416;13.548;2023-07-09T06:23:11;101636.75;;;29.53;49.13
68594;BME280;55563;52.416;13.548;2023-07-09T06:25:12;101639.06;;;29.77;49.79
68594;BME280;55563;52.416;13.548;2023-07-09T06:27:13;101638.69;;;30.31;47.76
68594;BME280;55563;52.416;13.548;2023-07-09T06:29:14;101639.25;;;30.44;45.82
68594;BME280;55563;52.416;13.548;2023-07-09T06:31:14;101642.38;;;31.13;44.46
68594;BME280;55563;52.416;13.548;2023-07-09T06:33:16;101643.72;;;30.59;45.55
68594;BME280;55563;52.416;13.548;2023-07-09T06:35:18;101639.25;;;30.14;44.67
68594;BME280;55563;52.416;13.548;2023-07-09T06:37:19;101643.16;;;29.91;47.51
68594;BME280;55563;52.416;13.548;2023-07-09T06:39:19;101645.06;;;31.09;43.63
68594;BME280;55563;52.416;13.548;2023-07-09T06:41:20;101642.47;;;31.24;43.03
68594;BME280;55563;52.416;13.548;2023-07-09T06:43:21;101645.91;;;31.57;43.27
68594;BME280;55563;52.416;13.548;2023-07-09T06:45:23;101652.84;;;30.18;44.25
68594;BME280;55563;52.416;13.548;2023-07-09T06:47:24;101646.16;;;29.17;45.20
68594;BME280;55563;52.416;13.548;2023-07-09T06:49:25;101645.84;;;30.77;43.96
68594;BME280;55563;52.416;13.548;2023-07-09T06:51:26;101650.63;;;30.27;43.66
68594;BME280;55563;52.416;13.548;2023-07-09T06:53:27;101651.25;;;30.43;43.81
68594;BME280;55563;52.416;13.548;2023-07-09T06:55:28;101654.03;;;29.03;46.06
68594;BME280;55563;52.416;13.548;2023-07-09T06:57:29;101654.03;;;30.47;44.43
68594;BME280;55563;52.416;13.548;2023-07-09T06:59:30;101648.91;;;31.05;42.17
68594;BME280;55563;52.416;13.548;2023-07-09T07:01:30;101656.03;;;32.19;39.95
68594;BME280;55563;52.416;13.548;2023-07-09T07:03:32;101651.78;;;31.23;40.38
68594;BME280;55563;52.416;13.548;2023-07-09T07:05:33;101650.75;;;30.34;41.63
68594;BME280;55563;52.416;13.548;2023-07-09T07:07:34;101664.31;;;29.17;44.23
68594;BME280;55563;52.416;13.548;2023-07-09T07:09:35;101654.63;;;29.58;44.78
68594;BME280;55563;52.416;13.548;2023-07-09T07:11:36;101650.63;;;30.27;43.82
68594;BME280;55563;52.416;13.548;2023-07-09T07:13:39;101644.84;;;30.28;43.25
68594;BME280;55563;52.416;13.548;2023-07-09T07:15:40;101653.31;;;32.19;39.90
68594;BME280;55563;52.416;13.548;2023-07-09T07:17:40;101654.88;;;33.35;38.28
68594;BME280;55563;52.416;13.548;2023-07-09T07:19:41;101652.31;;;32.55;39.39
68594;BME280;55563;52.416;13.548;2023-07-09T07:21:42;101652.13;;;31.62;40.24
68594;BME280;55563;52.416;13.548;2023-07-09T07:23:43;101644.22;;;31.93;39.95
68594;BME280;55563;52.416;13.548;2023-07-09T07:25:45;101654.22;;;31.31;40.90
68594;BME280;55563;52.416;13.548;2023-07-09T07:27:46;101653.31;;;32.15;39.25
68594;BME280;55563;52.416;13.548;2023-07-09T07:29:47;101653.16;;;31.94;40.63
68594;BME280;55563;52.416;13.548;2023-07-09T07:31:47;101655.34;;;32.32;37.81
68594;BME280;55563;52.416;13.548;2023-07-09T07:33:48;101657.78;;;30.39;43.13
68594;BME280;55563;52.416;13.548;2023-07-09T07:35:49;101653.31;;;30.50;42.14
68594;BME280;55563;52.416;13.548;2023-07-09T07:37:50;101653.63;;;31.55;42.37
68594;BME280;55563;52.416;13.548;2023-07-09T07:39:50;101651.56;;;30.68;43.50
68594;BME280;55563;52.416;13.548;2023-07-09T07:41:51;101650.56;;;31.16;41.43
68594;BME280;55563;52.416;13.548;2023-07-09T07:43:51;101649.81;;;33.19;38.92
68594;BME280;55563;52.416;13.548;2023-07-09T07:45:52;101653.31;;;29.74;42.78
68594;BME280;55563;52.416;13.548;2023-07-09T07:47:53;101654.44;;;29.47;43.31
68594;BME280;55563;52.416;13.548;2023-07-09T07:49:54;101654.25;;;30.98;42.64
68594;BME280;55563;52.416;13.548;2023-07-09T07:51:54;101651.97;;;31.44;41.39
68594;BME280;55563;52.416;13.548;2023-07-09T07:53:56;101653.00;;;31.69;41.03
68594;BME280;55563;52.416;13.548;2023-07-09T07:55:57;101652.69;;;31.00;41.62
68594;BME280;55563;52.416;13.548;2023-07-09T07:57:58;101647.84;;;31.57;43.29
68594;BME280;55563;52.416;13.548;2023-07-09T08:00:00;101647.50;;;31.66;42.78
68594;BME280;55563;52.416;13.548;2023-07-09T08:02:02;101645.53;;;31.18;44.44
68594;BME280;55563;52.416;13.548;2023-07-09T08:04:03;101647.25;;;30.97;43.95
68594;BME280;55563;52.416;13.548;2023-07-09T08:06:04;101643.50;;;31.52;43.26
68594;BME280;55563;52.416;13.548;2023-07-09T08:08:05;101650.63;;;30.27;44.77
68594;BME280;55563;52.416;13.548;2023-07-09T08:10:06;101645.25;;;30.94;43.68
68594;BME280;55563;52.416;13.548;2023-07-09T08:12:07;101638.47;;;31.54;43.64
68594;BME280;55563;52.416;13.548;2023-07-09T08:14:12;101648.66;;;32.19;43.07
68594;BME280;55563;52.416;13.548;2023-07-09T08:16:12;101651.28;;;30.77;46.25
68594;BME280;55563;52.416;13.548;2023-07-09T08:18:13;101645.59;;;31.22;44.45
68594;BME280;55563;52.416;13.548;2023-07-09T08:20:14;101642.81;;;30.22;45.53
68594;BME280;55563;52.416;13.548;2023-07-09T08:22:15;101650.97;;;29.27;46.40
68594;BME280;55563;52.416;13.548;2023-07-09T08:24:16;101645.69;;;30.99;45.63
68594;BME280;55563;52.416;13.548;2023-07-09T08:26:17;101647.56;;;30.55;48.33
68594;BME280;55563;52.416;13.548;2023-07-09T08:28:18;101653.16;;;31.02;49.75
68594;BME280;55563;52.416;13.548;2023-07-09T08:30:18;101648.72;;;30.57;46.94
68594;BME280;55563;52.416;13.548;2023-07-09T08:32:19;101655.66;;;30.25;47.64
68594;BME280;55563;52.416;13.548;2023-07-09T08:34:20;101651.94;;;30.37;46.13
68594;BME280;55563;52.416;13.548;2023-07-09T08:36:20;101651.72;;;29.93;46.63
68594;BME280;55563;52.416;13.548;2023-07-09T08:38:22;101646.66;;;31.14;46.78
68594;BME280;55563;52.416;13.548;2023-07-09T08:40:23;101655.16;;;30.16;46.11
68594;BME280;55563;52.416;13.548;2023-07-09T08:42:43;101640.63;;;31.31;44.38
68594;BME280;55563;52.416;13.548;2023-07-09T08:45:11;101644.53;;;30.33;47.45
68594;BME280;55563;52.416;13.548;2023-07-09T08:49:53;101652.56;;;30.86;43.51
68594;BME280;55563;52.416;13.548;2023-07-09T08:51:57;101651.19;;;30.10;44.13
68594;BME280;55563;52.416;13.548;2023-07-09T08:53:59;101646.53;;;31.03;45.13
68594;BME280;55563;52.416;13.548;2023-07-09T08:56:00;101637.75;;;30.80;43.44
68594;BME280;55563;52.416;13.548;2023-07-09T08:58:05;101637.66;;;31.06;42.92
68594;BME280;55563;52.416;13.548;2023-07-09T09:00:30;101634.94;;;30.69;44.05
68594;BME280;55563;52.416;13.548;2023-07-09T09:02:35;101630.50;;;29.75;43.89
68594;BME280;55563;52.416;13.548;2023-07-09T09:04:37;101639.31;;;29.92;45.41
68594;BME280;55563;52.416;13.548;2023-07-09T09:06:42;101629.88;;;30.68;42.43
68594;BME280;55563;52.416;13.548;2023-07-09T09:11:31;101631.38;;;29.57;41.27
68594;BME280;55563;52.416;13.548;2023-07-09T09:13:36;101623.19;;;30.62;40.19
68594;BME280;55563;52.416;13.548;2023-07-09T09:15:40;101618.84;;;29.98;39.68
68594;BME280;55563;52.416;13.548;2023-07-09T09:17:43;101624.88;;;30.73;41.52
68594;BME280;55563;52.416;13.548;2023-07-09T09:19:53;101622.81;;;30.97;36.62
68594;BME280;55563;52.416;13.548;2023-07-09T09:22:01;101622.88;;;30.67;37.83
68594;BME280;55563;52.416;13.548;2023-07-09T09:24:14;101626.72;;;31.40;39.29
68594;BME280;55563;52.416;13.548;2023-07-09T09:26:18;101622.31;;;30.24;36.90
68594;BME280;55563;52.416;13.548;2023-07-09T09:28:22;101625.03;;;31.25;38.15
68594;BME280;55563;52.416;13.548;2023-07-09T09:30:25;101632.16;;;30.36;38.20
68594;BME280;55563;52.416;13.548;2023-07-09T09:32:28;101627.31;;;31.23;37.20
68594;BME280;55563;52.416;13.548;2023-07-09T09:34:29;101634.09;;;30.65;38.82
68594;BME280;55563;52.416;13.548;2023-07-09T09:36:30;101632.78;;;30.89;38.55
68594;BME280;55563;52.416;13.548;2023-07-09T09:38:35;101627.03;;;31.82;38.73
68594;BME280;55563;52.416;13.548;2023-07-09T09:40:36;101626.38;;;31.48;35.02
68594;BME280;55563;52.416;13.548;2023-07-09T09:42:37;101632.88;;;30.59;35.64
68594;BME280;55563;52.416;13.548;2023-07-09T09:44:43;101637.06;;;30.27;36.72
68594;BME280;55563;52.416;13.548;2023-07-09T09:46:44;101639.00;;;30.26;36.27
68594;BME280;55563;52.416;13.548;2023-07-09T09:48:47;101635.03;;;30.80;36.96
68594;BME280;55563;52.416;13.548;2023-07-09T09:50:50;101634.31;;;30.50;37.57
68594;BME280;55563;52.416;13.548;2023-07-09T09:52:51;101634.94;;;30.40;37.48
68594;BME280;55563;52.416;13.548;2023-07-09T09:55:02;101634.81;;;30.59;36.73
68594;BME280;55563;52.416;13.548;2023-07-09T09:57:03;101631.28;;;30.92;35.93
68594;BME280;55563;52.416;13.548;2023-07-09T09:59:05;101626.25;;;30.57;35.34
68594;BME280;55563;52.416;13.548;2023-07-09T10:01:14;101641.91;;;30.11;37.56
68594;BME280;55563;52.416;13.548;2023-07-09T10:03:16;101619.28;;;30.29;35.11
68594;BME280;55563;52.416;13.548;2023-07-09T10:05:21;101629.44;;;30.66;34.35
68594;BME280;55563;52.416;13.548;2023-07-09T10:07:43;101630.03;;;30.82;33.70
68594;BME280;55563;52.416;13.548;2023-07-09T10:09:51;101636.06;;;31.02;34.25
68594;BME280;55563;52.416;13.548;2023-07-09T10:11:58;101632.06;;;31.77;35.35
68594;BME280;55563;52.416;13.548;2023-07-09T10:14:13;101630.81;;;31.67;35.09
68594;BME280;55563;52.416;13.548;2023-07-09T10:16:33;101628.72;;;30.39;36.83
68594;BME280;55563;52.416;13.548;2023-07-09T10:21:18;101639.41;;;32.31;38.21
68594;BME280;55563;52.416;13.548;2023-07-09T10:28:05;101626.81;;;31.10;37.66
68594;BME280;55563;52.416;13.548;2023-07-09T10:30:19;101621.78;;;30.12;36.83
68594;BME280;55563;52.416;13.548;2023-07-09T10:32:44;101629.03;;;30.64;35.51
68594;BME280;55563;52.416;13.548;2023-07-09T10:34:55;101627.63;;;30.77;37.33
68594;BME280;55563;52.416;13.548;2023-07-09T10:39:40;101631.91;;;30.78;38.03
68594;BME280;55563;52.416;13.548;2023-07-09T10:41:43;101627.41;;;31.33;38.45
68594;BME280;55563;52.416;13.548;2023-07-09T10:43:54;101623.19;;;31.83;37.02
68594;BME280;55563;52.416;13.548;2023-07-09T10:46:02;101621.16;;;31.26;36.11
68594;BME280;55563;52.416;13.548;2023-07-09T10:48:10;101622.00;;;30.93;37.66
68594;BME280;55563;52.416;13.548;2023-07-09T10:50:27;101620.75;;;31.24;36.65
68594;BME280;55563;52.416;13.548;2023-07-09T10:52:39;101617.41;;;31.95;38.27
68594;BME280;55563;52.416;13.548;2023-07-09T10:55:22;101619.16;;;31.23;36.89
68594;BME280;55563;52.416;13.548;2023-07-09T10:57:17;101610.66;;;30.84;37.42
68594;BME280;55563;52.416;13.548;2023-07-09T10:59:26;101615.75;;;31.29;37.83